Time;durP1;ratioP1;P1;durP2;ratioP2;P2;SDS_P1;SDS_P2;PMS_P1;PMS_P2;Temp;Humidity;BMP_temperature;BMP_pressure;BME280_temperature;BME280_humidity;BME280_pressure;Samples;Min_cycle;Max_cycle;Signal;HPM_P1;HPM_P2
2023/02/16 00:01:26;;;;;;;0.10;0.10;;;3.30;99.90;;;;;;5009891;28;20026;-74
2023/02/16 00:03:53;;;;;;;0.10;0.10;;;3.20;99.90;;;;;;4995419;28;20038;-74
2023/02/16 00:06:19;;;;;;;0.10;0.10;;;3.10;99.90;;;;;;4994378;28;20484;-74
2023/02/16 00:08:50;;;;;;;0.10;0.10;;;3.00;99.90;;;;;;5009971;28;20038;-74
2023/02/16 00:14:21;;;;;;;0.10;0.10;;;2.80;99.90;;;;;;4975369;28;20058;-74
2023/02/16 00:16:47;;;;;;;0.10;0.10;;;2.70;99.90;;;;;;4973694;28;20026;-74
2023/02/16 00:19:23;;;;;;;0.10;0.10;;;2.80;99.90;;;;;;4974143;28;20027;-74
2023/02/16 00:21:50;;;;;;;0.10;0.10;;;3.00;99.90;;;;;;4973864;28;20023;-74
2023/02/16 00:24:16;;;;;;;0.10;0.10;;;3.00;99.90;;;;;;4986764;28;20110;-74
2023/02/16 00:26:42;;;;;;;0.17;0.17;;;3.10;99.90;;;;;;4994276;28;20117;-74
2023/02/16 00:29:21;;;;;;;0.10;0.10;;;3.10;99.90;;;;;;4994197;28;20129;-74
2023/02/16 00:31:47;;;;;;;0.15;0.15;;;3.30;99.90;;;;;;4993525;28;20026;-74
2023/02/16 00:34:33;;;;;;;0.10;0.10;;;3.40;99.90;;;;;;4993645;28;20391;-74
2023/02/16 00:37:11;;;;;;;0.10;0.10;;;3.60;99.90;;;;;;4994024;28;20036;-74
2023/02/16 00:39:38;;;;;;;0.10;0.10;;;3.70;99.90;;;;;;4994488;28;20023;-74
2023/02/16 00:42:22;;;;;;;0.10;0.10;;;3.80;99.90;;;;;;4994455;28;20019;-74
2023/02/16 00:44:50;;;;;;;0.10;0.10;;;3.90;99.90;;;;;;4994425;28;20031;-74
2023/02/16 00:47:16;;;;;;;0.10;0.10;;;4.00;99.90;;;;;;4994305;28;20034;-74
2023/02/16 00:49:42;;;;;;;0.10;0.10;;;4.10;99.90;;;;;;4994357;28;20399;-74
2023/02/16 00:52:27;;;;;;;0.10;0.10;;;4.00;99.90;;;;;;4994270;28;20391;-74
2023/02/16 00:54:52;;;;;;;0.10;0.10;;;4.10;99.90;;;;;;4994501;28;20030;-74
2023/02/16 00:57:18;;;;;;;0.10;0.10;;;4.00;99.90;;;;;;4994448;28;20034;-74
2023/02/16 00:59:45;;;;;;;0.10;0.10;;;4.00;99.90;;;;;;4992967;28;20121;-74
2023/02/16 01:02:11;;;;;;;0.10;0.10;;;3.90;99.90;;;;;;4994396;28;20470;-74
2023/02/16 01:04:37;;;;;;;0.05;0.05;;;4.00;99.90;;;;;;4994113;28;20053;-74
2023/02/16 01:12:38;;;;;;;0.10;0.10;;;4.00;99.90;;;;;;4994079;28;20073;-74
2023/02/16 01:15:08;;;;;;;0.00;0.00;;;3.90;99.90;;;;;;4993932;28;20488;-74
2023/02/16 01:17:34;;;;;;;0.10;0.10;;;4.00;99.90;;;;;;4993875;28;20113;-74
2023/02/16 01:19:59;;;;;;;0.10;0.10;;;3.90;99.90;;;;;;4994085;28;20113;-74
2023/02/16 01:22:25;;;;;;;0.10;0.10;;;4.00;99.90;;;;;;4994360;28;20062;-74
2023/02/16 01:24:51;;;;;;;0.10;0.10;;;3.90;99.90;;;;;;4994164;28;20110;-74
2023/02/16 01:27:16;;;;;;;0.10;0.10;;;3.90;99.90;;;;;;4993737;28;20026;-74
2023/02/16 01:29:42;;;;;;;0.10;0.10;;;3.90;99.90;;;;;;4993774;28;20152;-74
2023/02/16 01:32:11;;;;;;;0.10;0.10;;;3.80;99.90;;;;;;4993744;28;20037;-74
2023/02/16 01:34:37;;;;;;;0.10;0.10;;;3.70;99.90;;;;;;4993668;28;20031;-74
2023/02/16 01:37:02;;;;;;;0.10;0.10;;;3.60;99.90;;;;;;4993689;28;20491;-74
2023/02/16 01:39:28;;;;;;;0.10;0.10;;;3.60;99.90;;;;;;4993650;28;20026;-74
2023/02/16 01:41:56;;;;;;;0.10;0.10;;;3.60;99.90;;;;;;4994994;28;20033;-74
2023/02/16 01:44:39;;;;;;;0.10;0.10;;;3.60;99.90;;;;;;4997979;28;20046;-74
2023/02/16 01:47:11;;;;;;;0.10;0.10;;;3.60;99.90;;;;;;4997829;28;20037;-74
2023/02/16 01:49:36;;;;;;;0.10;0.10;;;3.60;99.90;;;;;;4997868;28;20035;-74
2023/02/16 01:52:16;;;;;;;0.10;0.10;;;3.50;99.90;;;;;;4997847;28;20072;-74
2023/02/16 01:54:56;;;;;;;0.10;0.10;;;3.50;99.90;;;;;;4997844;28;20038;-74
2023/02/16 01:57:26;;;;;;;0.10;0.10;;;3.50;99.90;;;;;;4997508;28;20056;-74
2023/02/16 01:59:52;;;;;;;0.10;0.10;;;3.60;99.90;;;;;;4997679;28;20493;-74
2023/02/16 02:02:26;;;;;;;0.10;0.10;;;3.50;99.90;;;;;;4997412;28;20072;-74
2023/02/16 02:05:36;;;;;;;0.10;0.10;;;3.60;99.90;;;;;;4997938;28;20026;-74
2023/02/16 02:08:34;;;;;;;0.10;0.10;;;3.60;99.90;;;;;;4994753;28;20069;-74
2023/02/16 02:11:08;;;;;;;0.10;0.10;;;3.70;99.90;;;;;;4994324;28;20034;-74
2023/02/16 02:13:42;;;;;;;0.10;0.10;;;3.60;99.90;;;;;;4997030;28;20033;-74
2023/02/16 02:16:10;;;;;;;0.10;0.10;;;3.70;99.90;;;;;;4997143;28;20023;-74
2023/02/16 02:18:35;;;;;;;0.08;0.08;;;3.70;99.90;;;;;;4997034;28;20029;-74
2023/02/16 02:24:34;;;;;;;0.10;0.10;;;3.60;99.90;;;;;;4997243;28;20403;-74
2023/02/16 02:27:21;;;;;;;0.00;0.00;;;3.60;99.90;;;;;;4996712;28;20030;-74
2023/02/16 02:29:55;;;;;;;0.10;0.10;;;3.50;99.90;;;;;;4997031;28;20053;-74
2023/02/16 02:32:42;;;;;;;0.10;0.10;;;3.50;99.90;;;;;;4996690;28;20022;-74
2023/02/16 02:35:11;;;;;;;0.10;0.10;;;3.60;99.90;;;;;;4996419;28;20030;-74
2023/02/16 02:38:05;;;;;;;0.10;0.10;;;3.60;99.90;;;;;;4996469;28;20369;-74
2023/02/16 02:40:46;;;;;;;0.10;0.10;;;3.70;99.90;;;;;;4996560;28;20022;-74
2023/02/16 02:43:19;;;;;;;0.10;0.10;;;3.70;99.90;;;;;;4996451;28;20113;-74
2023/02/16 02:45:48;;;;;;;0.10;0.10;;;3.90;99.90;;;;;;5011343;28;20085;-74
2023/02/16 02:48:14;;;;;;;0.10;0.10;;;3.90;99.90;;;;;;4996342;28;20027;-74
2023/02/16 02:51:27;;;;;;;0.05;0.05;;;3.90;99.90;;;;;;4996257;28;20391;-74
2023/02/16 02:53:40;;;;;;;0.10;0.10;;;3.90;99.90;;;;;;4995232;28;20031;-74
2023/02/16 03:01:46;;;;;;;0.10;0.10;;;3.80;99.90;;;;;;4993284;28;20025;-74
2023/02/16 03:04:15;;;;;;;0.10;0.10;;;3.80;99.90;;;;;;4996177;28;20033;-74
2023/02/16 03:06:45;;;;;;;0.10;0.10;;;3.70;99.90;;;;;;4995864;28;20034;-74
2023/02/16 03:09:13;;;;;;;0.10;0.10;;;3.60;99.90;;;;;;5010958;28;20037;-74
2023/02/16 03:14:53;;;;;;;0.10;0.10;;;3.30;99.90;;;;;;4988309;28;20072;-73
2023/02/16 03:31:18;;;;;;;0.10;0.10;;;2.60;99.90;;;;;;4995401;28;20082;-74
2023/02/16 03:33:45;;;;;;;0.10;0.10;;;2.50;99.90;;;;;;4995564;28;20069;-74
2023/02/16 03:36:11;;;;;;;0.13;0.13;;;2.50;99.90;;;;;;4995429;28;20380;-74
2023/02/16 03:38:38;;;;;;;0.10;0.10;;;2.50;99.90;;;;;;4995424;28;20033;-74
2023/02/16 03:41:04;;;;;;;0.10;0.10;;;2.60;99.90;;;;;;4995385;28;20042;-74
2023/02/16 03:43:30;;;;;;;0.20;0.20;;;2.60;99.90;;;;;;4995395;28;20033;-74
2023/02/16 03:45:56;;;;;;;0.10;0.10;;;2.60;99.90;;;;;;4995378;28;20029;-74
2023/02/16 03:48:21;;;;;;;0.10;0.10;;;2.60;99.90;;;;;;5010252;28;20065;-74
2023/02/16 03:50:47;;;;;;;0.10;0.10;;;2.70;99.90;;;;;;4995230;28;20023;-74
2023/02/16 03:53:12;;;;;;;0.10;0.10;;;2.60;99.90;;;;;;4986254;28;20022;-74
2023/02/16 03:55:41;;;;;;;0.10;0.10;;;2.60;99.90;;;;;;4975548;28;20031;-74
2023/02/16 03:58:09;;;;;;;0.10;0.10;;;2.40;99.90;;;;;;4984774;28;20093;-74
2023/02/16 04:00:35;;;;;;;0.20;0.20;;;2.30;99.90;;;;;;4994835;28;20022;-74
2023/02/16 04:03:02;;;;;;;0.10;0.10;;;2.20;99.90;;;;;;4995087;28;20019;-74
2023/02/16 04:05:28;;;;;;;0.10;0.10;;;2.20;99.90;;;;;;4994691;28;20431;-74
2023/02/16 04:07:53;;;;;;;0.10;0.10;;;2.30;99.90;;;;;;4993398;28;20042;-74
2023/02/16 04:10:19;;;;;;;0.10;0.10;;;2.30;99.90;;;;;;4994840;28;20034;-74
2023/02/16 04:12:45;;;;;;;0.10;0.10;;;2.20;99.90;;;;;;4994751;28;20093;-74
2023/02/16 04:15:18;;;;;;;0.10;0.10;;;2.20;99.90;;;;;;4994830;28;20122;-74
2023/02/16 04:17:43;;;;;;;0.10;0.10;;;2.30;99.90;;;;;;4992243;28;20030;-74
2023/02/16 04:20:12;;;;;;;0.10;0.10;;;2.30;99.90;;;;;;4994585;28;20029;-74
2023/02/16 04:22:37;;;;;;;0.10;0.10;;;2.40;99.90;;;;;;4993740;28;20451;-74
2023/02/16 04:25:03;;;;;;;0.20;0.20;;;2.50;99.90;;;;;;5006560;28;20058;-74
2023/02/16 04:27:29;;;;;;;0.10;0.10;;;2.60;99.90;;;;;;4975064;28;20081;-74
2023/02/16 04:29:54;;;;;;;0.10;0.10;;;2.70;99.90;;;;;;4974985;28;20030;-74
2023/02/16 04:32:20;;;;;;;0.10;0.10;;;2.80;99.90;;;;;;4979016;28;20485;-74
2023/02/16 04:34:45;;;;;;;0.10;0.10;;;2.80;99.90;;;;;;5012860;28;20499;-74
2023/02/16 04:37:11;;;;;;;0.10;0.10;;;2.90;99.90;;;;;;5013709;28;20026;-74
2023/02/16 04:39:36;;;;;;;0.10;0.10;;;3.00;99.90;;;;;;5014100;28;20026;-74
2023/02/16 04:42:02;;;;;;;0.10;0.10;;;2.90;99.90;;;;;;5008696;28;20035;-74
2023/02/16 04:44:28;;;;;;;0.10;0.10;;;3.00;99.90;;;;;;4994281;28;20034;-74
2023/02/16 04:46:53;;;;;;;0.10;0.10;;;3.00;99.90;;;;;;4993941;28;20030;-74
2023/02/16 04:49:19;;;;;;;0.10;0.10;;;3.10;99.90;;;;;;4979187;28;20124;-74
2023/02/16 04:51:45;;;;;;;0.13;0.13;;;3.10;99.90;;;;;;4974642;28;20174;-74
2023/02/16 04:54:10;;;;;;;0.10;0.10;;;3.10;99.90;;;;;;4981074;28;20483;-74
2023/02/16 04:56:36;;;;;;;0.10;0.10;;;3.10;99.90;;;;;;4989706;28;20033;-74
2023/02/16 04:59:02;;;;;;;0.20;0.20;;;3.10;99.90;;;;;;4978113;28;20559;-74
2023/02/16 05:01:28;;;;;;;0.10;0.10;;;3.10;99.90;;;;;;4975110;28;20038;-74
2023/02/16 05:03:54;;;;;;;0.10;0.10;;;3.20;99.90;;;;;;4980803;28;20110;-74
2023/02/16 05:06:19;;;;;;;0.10;0.10;;;3.30;99.90;;;;;;4993763;28;20030;-74
2023/02/16 05:08:45;;;;;;;0.10;0.10;;;3.30;99.90;;;;;;4993839;28;20093;-74
2023/02/16 05:16:41;;;;;;;0.20;0.20;;;3.30;99.90;;;;;;4993318;28;20175;-74
2023/02/16 05:19:07;;;;;;;0.10;0.10;;;3.20;99.90;;;;;;4993928;28;20109;-74
2023/02/16 05:21:34;;;;;;;0.10;0.10;;;3.30;99.90;;;;;;4993779;28;20391;-74
2023/02/16 05:24:05;;;;;;;0.10;0.10;;;3.30;99.90;;;;;;4993427;28;20073;-74
2023/02/16 05:26:31;;;;;;;0.10;0.10;;;3.20;99.90;;;;;;4993540;28;20085;-74
2023/02/16 05:28:57;;;;;;;0.10;0.10;;;3.30;99.90;;;;;;4993763;28;20030;-74
2023/02/16 05:31:24;;;;;;;0.10;0.10;;;3.40;99.90;;;;;;4993380;28;20503;-74
2023/02/16 05:33:50;;;;;;;0.10;0.10;;;3.50;99.90;;;;;;4993504;28;20026;-74
2023/02/16 05:36:15;;;;;;;0.10;0.10;;;3.60;99.90;;;;;;4993278;28;20022;-74
2023/02/16 05:38:41;;;;;;;0.05;0.05;;;3.60;99.90;;;;;;4993400;28;20105;-74
2023/02/16 05:41:06;;;;;;;0.10;0.10;;;3.70;99.90;;;;;;4993366;28;20116;-74
2023/02/16 05:43:32;;;;;;;0.20;0.20;;;3.70;99.90;;;;;;4993570;28;20037;-74
2023/02/16 05:45:58;;;;;;;0.10;0.10;;;3.80;99.90;;;;;;4993362;28;20025;-74
2023/02/16 05:48:23;;;;;;;0.10;0.10;;;3.80;99.90;;;;;;4993126;28;20534;-74
2023/02/16 05:50:49;;;;;;;0.20;0.20;;;3.90;99.90;;;;;;4993364;28;20472;-74
2023/02/16 05:53:14;;;;;;;0.10;0.10;;;3.90;99.90;;;;;;4993180;28;20018;-74
2023/02/16 05:55:40;;;;;;;0.10;0.10;;;4.10;99.90;;;;;;4993447;28;20476;-74
2023/02/16 05:58:06;;;;;;;6.13;5.53;;;4.20;99.90;;;;;;4978354;28;20033;-74
2023/02/16 06:00:32;;;;;;;11.85;6.93;;;4.30;99.90;;;;;;4984345;28;20511;-73
2023/02/16 06:02:58;;;;;;;15.07;10.63;;;4.40;99.90;;;;;;4991966;28;20031;-73
2023/02/16 06:05:25;;;;;;;4.15;2.75;;;4.60;99.90;;;;;;4991646;28;20112;-73
2023/02/16 06:07:51;;;;;;;9.18;4.28;;;4.70;99.90;;;;;;5006538;23;20030;-76
2023/02/16 06:10:17;;;;;;;5.95;1.10;;;4.90;99.90;;;;;;5012560;28;20511;-76
2023/02/16 06:12:43;;;;;;;0.10;0.10;;;5.00;99.90;;;;;;5012822;28;20021;-76
2023/02/16 06:15:09;;;;;;;8.10;2.20;;;5.00;99.90;;;;;;5011585;28;20073;-76
2023/02/16 06:17:35;;;;;;;0.20;0.20;;;5.00;99.90;;;;;;5012447;28;20026;-76
2023/02/16 06:20:00;;;;;;;0.50;0.50;;;5.00;99.90;;;;;;5012845;28;20018;-76
2023/02/16 06:22:26;;;;;;;0.10;0.10;;;5.00;99.90;;;;;;5012522;28;20483;-76
2023/02/16 06:24:51;;;;;;;1.42;1.33;;;5.00;99.90;;;;;;5011279;28;20554;-76
2023/02/16 06:27:17;;;;;;;0.10;0.10;;;4.90;99.90;;;;;;5013008;28;20102;-76
2023/02/16 06:29:42;;;;;;;16.88;5.90;;;5.00;99.90;;;;;;5016336;28;20061;-76
2023/02/16 06:32:08;;;;;;;0.20;0.20;;;5.00;99.90;;;;;;5016079;28;20115;-76
2023/02/16 06:34:33;;;;;;;2.38;2.20;;;5.00;99.90;;;;;;5016123;28;20040;-76
2023/02/16 06:36:59;;;;;;;1.13;1.13;;;5.00;99.90;;;;;;5016142;28;20474;-76
2023/02/16 06:39:24;;;;;;;0.63;0.50;;;5.00;99.90;;;;;;5002284;28;20030;-76
2023/02/16 06:41:50;;;;;;;0.68;0.45;;;5.10;99.90;;;;;;4995962;28;20034;-76
2023/02/16 06:44:15;;;;;;;6.13;2.70;;;5.20;99.90;;;;;;4991398;28;20037;-76
2023/02/16 06:46:43;;;;;;;43.75;15.57;;;5.20;99.90;;;;;;4995147;28;20113;-76
2023/02/16 06:49:15;;;;;;;4.72;2.83;;;5.20;99.90;;;;;;4983078;28;20457;-76
2023/02/16 06:51:41;;;;;;;8.82;5.30;;;5.20;99.90;;;;;;4976915;28;20052;-76
2023/02/16 06:54:06;;;;;;;1.45;1.35;;;5.20;99.90;;;;;;4978947;28;20054;-76
2023/02/16 06:56:32;;;;;;;8.77;3.58;;;5.20;99.90;;;;;;4975563;28;20027;-76
2023/02/16 06:58:57;;;;;;;5.03;4.53;;;5.20;99.90;;;;;;4980603;28;20386;-76
2023/02/16 07:01:24;;;;;;;4.70;4.28;;;5.20;99.90;;;;;;5016194;28;20026;-76
2023/02/16 07:03:52;;;;;;;9.30;7.10;;;5.20;99.90;;;;;;5015427;28;20109;-76
2023/02/16 07:06:18;;;;;;;37.00;13.32;;;5.20;99.90;;;;;;5015769;28;20053;-76
2023/02/16 07:08:44;;;;;;;8.63;5.60;;;5.20;99.90;;;;;;5009711;28;20026;-76
2023/02/16 07:11:10;;;;;;;2.42;2.22;;;5.30;99.90;;;;;;4996154;28;20037;-76
2023/02/16 07:13:35;;;;;;;6.45;5.82;;;5.30;99.90;;;;;;4997317;28;20034;-76
2023/02/16 07:16:03;;;;;;;6.60;6.05;;;5.30;99.90;;;;;;4989072;28;20065;-76
2023/02/16 07:18:28;;;;;;;5.65;4.22;;;5.30;99.90;;;;;;4977109;28;20019;-76
2023/02/16 07:20:54;;;;;;;0.57;0.57;;;5.30;99.90;;;;;;5001180;28;20044;-76
2023/02/16 07:23:20;;;;;;;14.70;5.70;;;5.30;99.90;;;;;;5005077;28;20403;-76
2023/02/16 07:25:45;;;;;;;8.65;2.35;;;5.30;99.90;;;;;;4994858;28;20391;-76
2023/02/16 07:28:11;;;;;;;0.10;0.10;;;5.30;99.90;;;;;;5013980;28;20030;-76
2023/02/16 07:30:37;;;;;;;50.53;14.63;;;5.30;99.90;;;;;;5015412;28;20029;-77
2023/02/16 07:33:02;;;;;;;0.45;0.45;;;5.30;99.90;;;;;;5015590;28;20026;-77
2023/02/16 07:35:28;;;;;;;0.10;0.10;;;5.30;99.90;;;;;;5015415;28;20036;-77
2023/02/16 07:37:54;;;;;;;0.90;0.85;;;5.40;99.90;;;;;;5030423;28;20117;-76
2023/02/16 07:40:19;;;;;;;1.00;0.70;;;5.40;99.90;;;;;;5014683;28;20116;-76
2023/02/16 07:42:45;;;;;;;0.10;0.10;;;5.30;99.90;;;;;;5015578;28;20073;-77
2023/02/16 07:45:10;;;;;;;0.10;0.10;;;5.20;99.90;;;;;;5015190;28;20077;-76
2023/02/16 07:47:36;;;;;;;4.07;3.70;;;5.30;99.90;;;;;;5030315;28;20025;-76
2023/02/16 07:50:02;;;;;;;0.98;0.90;;;5.30;99.90;;;;;;5014910;28;20034;-77
2023/02/16 07:52:29;;;;;;;2.90;1.55;;;5.30;99.90;;;;;;5015138;28;20030;-76
2023/02/16 07:54:57;;;;;;;0.10;0.10;;;5.30;99.90;;;;;;5002703;28;20037;-76
2023/02/16 07:57:23;;;;;;;1.55;1.45;;;5.30;99.90;;;;;;4990270;28;20022;-76
2023/02/16 07:59:53;;;;;;;0.25;0.25;;;5.30;99.90;;;;;;4975849;28;20396;-76
2023/02/16 08:02:22;;;;;;;0.17;0.17;;;5.40;99.90;;;;;;4992027;28;20034;-76
2023/02/16 08:04:51;;;;;;;1.00;1.00;;;5.40;99.90;;;;;;4994978;28;20101;-76
2023/02/16 08:07:17;;;;;;;12.90;5.18;;;5.40;99.90;;;;;;4999037;28;20038;-76
2023/02/16 08:09:43;;;;;;;2.40;1.85;;;5.50;99.90;;;;;;4994898;28;20500;-76
2023/02/16 08:12:11;;;;;;;0.98;0.32;;;5.50;99.90;;;;;;5013743;28;20104;-76
2023/02/16 08:14:37;;;;;;;15.98;4.88;;;5.60;99.90;;;;;;5013319;28;20025;-76
2023/02/16 08:17:04;;;;;;;0.55;0.55;;;5.60;99.90;;;;;;5029653;28;20033;-76
2023/02/16 08:19:30;;;;;;;10.27;7.18;;;5.70;99.90;;;;;;5014208;28;20104;-76
2023/02/16 08:21:58;;;;;;;3.83;3.55;;;5.60;99.90;;;;;;5014665;28;20066;-76
2023/02/16 08:24:24;;;;;;;0.50;0.50;;;5.60;99.90;;;;;;5000497;28;20034;-76
2023/02/16 08:26:52;;;;;;;1.30;1.20;;;5.70;99.90;;;;;;4995112;28;20511;-76
2023/02/16 08:29:18;;;;;;;1.35;1.25;;;5.80;99.90;;;;;;4991392;28;20400;-77
2023/02/16 08:31:45;;;;;;;17.08;7.95;;;5.90;99.90;;;;;;4994248;28;20034;-76
2023/02/16 08:34:12;;;;;;;24.02;6.35;;;5.90;99.90;;;;;;4981898;28;20388;-76
2023/02/16 08:36:40;;;;;;;9.75;1.77;;;5.90;99.90;;;;;;4974892;28;20105;-76
2023/02/16 08:39:14;;;;;;;10.60;2.75;;;5.80;99.90;;;;;;4983345;28;20102;-77
2023/02/16 08:41:42;;;;;;;29.33;11.27;;;5.80;99.90;;;;;;4994199;28;20392;-76
2023/02/16 08:44:08;;;;;;;3.65;2.05;;;5.80;99.90;;;;;;4993518;28;20027;-76
2023/02/16 08:46:36;;;;;;;8.57;3.60;;;5.80;99.90;;;;;;4973343;28;20046;-76
2023/02/16 08:49:02;;;;;;;15.70;7.32;;;5.80;99.90;;;;;;4974696;28;20031;-77
2023/02/16 08:51:30;;;;;;;18.30;10.85;;;5.80;99.90;;;;;;4991426;28;20492;-76
2023/02/16 08:53:58;;;;;;;40.00;10.65;;;5.80;99.90;;;;;;4994007;28;20035;-75
2023/02/16 08:56:25;;;;;;;1.95;1.70;;;5.80;99.90;;;;;;4994032;28;20452;-76
2023/02/16 08:58:51;;;;;;;3.30;2.70;;;5.80;99.90;;;;;;5009252;28;20034;-76
2023/02/16 09:01:16;;;;;;;28.27;11.35;;;5.80;99.90;;;;;;4993815;28;20583;-76
2023/02/16 09:03:44;;;;;;;15.02;7.05;;;5.80;99.90;;;;;;5005062;28;20026;-76
2023/02/16 09:06:12;;;;;;;4.50;3.20;;;5.80;99.90;;;;;;5013720;28;20017;-76
2023/02/16 09:08:38;;;;;;;47.80;19.25;;;5.90;99.90;;;;;;5013243;28;20030;-76
2023/02/16 09:11:12;;;;;;;2.13;1.10;;;5.90;99.90;;;;;;5013540;28;20499;-76
2023/02/16 09:13:39;;;;;;;36.47;11.32;;;5.90;99.90;;;;;;5013447;28;20037;-76
2023/02/16 09:16:08;;;;;;;3.03;2.83;;;6.00;99.90;;;;;;5013281;28;20502;-76
2023/02/16 09:18:36;;;;;;;18.52;8.77;;;5.90;99.90;;;;;;5003124;28;20033;-76
2023/02/16 09:21:24;;;;;;;12.38;5.72;;;5.90;99.90;;;;;;4975419;28;20050;-76
2023/02/16 09:23:53;;;;;;;11.88;6.20;;;6.00;99.90;;;;;;4974157;28;20023;-75
2023/02/16 09:26:20;;;;;;;1.05;1.05;;;6.00;99.90;;;;;;4988133;28;20479;-76
2023/02/16 09:28:47;;;;;;;11.20;4.07;;;6.00;99.90;;;;;;5006469;28;20101;-76
2023/02/16 09:31:19;;;;;;;0.73;0.60;;;6.00;99.90;;;;;;5013067;28;20105;-76
2023/02/16 09:33:45;;;;;;;4.10;3.60;;;6.00;99.90;;;;;;5013399;28;20068;-76
2023/02/16 09:36:11;;;;;;;34.65;16.63;;;6.00;99.90;;;;;;5013148;28;20101;-76
2023/02/16 09:38:41;;;;;;;4.60;2.90;;;6.00;99.90;;;;;;5013031;28;20032;-76
2023/02/16 09:41:24;;;;;;;4.63;3.33;;;5.90;99.90;;;;;;5011807;28;20022;-76
2023/02/16 09:44:08;;;;;;;3.50;2.22;;;5.90;99.90;;;;;;5028071;28;20491;-76
2023/02/16 09:46:34;;;;;;;;;;;6.00;99.90;;;;;;5013594;28;20026;-76
2023/02/16 09:49:02;;;;;;;10.35;5.13;;;6.00;99.90;;;;;;5013003;28;19916;-76
2023/02/16 09:51:43;;;;;;;26.42;8.15;;;6.00;99.90;;;;;;4993328;28;20129;-76
2023/02/16 09:54:35;;;;;;;8.52;6.40;;;6.00;99.90;;;;;;5013093;28;20549;-76
2023/02/16 09:57:28;;;;;;;1.00;0.98;;;6.00;99.90;;;;;;5002604;28;20490;-76
2023/02/16 10:00:03;;;;;;;17.05;12.30;;;6.10;99.90;;;;;;5012722;28;20026;-76
2023/02/16 10:02:51;;;;;;;9.18;8.20;;;6.10;99.90;;;;;;5013862;28;20360;-76
2023/02/16 10:05:29;;;;;;;21.75;18.50;;;6.10;99.90;;;;;;5017478;28;20026;-76
2023/02/16 10:08:13;;;;;;;8.20;7.22;;;6.10;99.90;;;;;;5016374;28;20080;-76
2023/02/16 10:10:45;;;;;;;0.20;0.20;;;6.10;99.90;;;;;;4996948;28;20056;-76
2023/02/16 10:13:22;;;;;;;0.10;0.10;;;6.10;99.90;;;;;;4987570;28;20029;-76
2023/02/16 10:15:50;;;;;;;0.10;0.10;;;6.10;99.90;;;;;;4978002;28;20086;-76
2023/02/16 10:18:32;;;;;;;0.17;0.17;;;6.10;99.90;;;;;;4989022;28;20018;-76
2023/02/16 10:21:02;;;;;;;0.10;0.10;;;6.10;99.90;;;;;;5016596;28;20028;-76
2023/02/16 10:23:39;;;;;;;0.10;0.10;;;6.10;99.90;;;;;;5012938;28;20395;-76
2023/02/16 10:26:18;;;;;;;0.10;0.10;;;6.10;99.90;;;;;;5005371;28;20053;-76
2023/02/16 10:28:49;;;;;;;0.10;0.10;;;6.10;99.90;;;;;;4988602;28;20027;-76
2023/02/16 10:31:17;;;;;;;0.10;0.10;;;6.10;99.90;;;;;;4977415;28;20533;-75
2023/02/16 10:34:01;;;;;;;0.10;0.10;;;6.10;99.90;;;;;;4983973;28;20105;-76
2023/02/16 10:36:45;;;;;;;;;;;6.10;99.90;;;;;;4977541;28;20109;-76
2023/02/16 10:39:23;;;;;;;0.20;0.20;;;6.10;99.90;;;;;;4976751;28;20290;-76
2023/02/16 10:42:15;;;;;;;0.10;0.10;;;6.10;99.90;;;;;;4977484;28;20508;-76
2023/02/16 10:44:47;;;;;;;0.10;0.10;;;6.10;99.90;;;;;;5010793;28;20034;-76
2023/02/16 10:47:37;;;;;;;0.10;0.10;;;6.10;99.90;;;;;;4996484;28;20081;-76
2023/02/16 10:50:14;;;;;;;0.10;0.10;;;6.20;99.90;;;;;;4996670;28;20025;-77
2023/02/16 10:52:42;;;;;;;0.10;0.10;;;6.10;99.90;;;;;;4996316;28;20034;-76
2023/02/16 10:55:08;;;;;;;0.10;0.10;;;6.10;99.90;;;;;;4980491;28;20460;-77
2023/02/16 10:57:33;;;;;;;0.20;0.20;;;6.20;99.90;;;;;;4990019;28;20049;-76
2023/02/16 11:00:05;;;;;;;0.10;0.10;;;6.20;99.90;;;;;;5015889;28;20045;-76
2023/02/16 11:02:41;;;;;;;0.10;0.10;;;6.20;99.90;;;;;;5015480;28;20459;-77
2023/02/16 11:05:25;;;;;;;0.20;0.20;;;6.20;99.90;;;;;;5014649;28;20113;-77
2023/02/16 11:07:55;;;;;;;;;;;6.20;99.90;;;;;;5015796;28;20055;-77
2023/02/16 11:10:33;;;;;;;0.10;0.10;;;6.20;99.90;;;;;;5016449;28;19916;-75
2023/02/16 11:12:58;;;;;;;0.10;0.10;;;6.20;99.90;;;;;;5015420;28;20034;-76
2023/02/16 11:15:26;;;;;;;0.20;0.20;;;6.30;99.90;;;;;;5013100;28;20041;-77
2023/02/16 11:17:53;;;;;;;0.10;0.10;;;6.30;99.90;;;;;;5013929;28;20372;-75
2023/02/16 11:20:45;;;;;;;0.10;0.10;;;6.30;99.90;;;;;;5014410;28;20034;-75
2023/02/16 11:23:27;;;;;;;0.20;0.20;;;6.40;99.90;;;;;;5015496;28;20101;-75
2023/02/16 11:25:57;;;;;;;0.10;0.10;;;6.40;99.90;;;;;;5014420;28;20483;-75
2023/02/16 11:28:31;;;;;;;0.10;0.10;;;6.40;99.90;;;;;;5013832;28;20030;-75
2023/02/16 11:31:20;;;;;;;0.10;0.10;;;6.50;99.90;;;;;;5015133;28;20022;-75
2023/02/16 11:34:04;;;;;;;0.10;0.10;;;6.60;99.90;;;;;;4985931;28;20137;-75
2023/02/16 11:36:39;;;;;;;0.10;0.10;;;6.70;99.90;;;;;;5007468;28;20487;-75
2023/02/16 11:39:13;;;;;;;0.15;0.15;;;6.70;99.90;;;;;;5005160;28;20030;-76
2023/02/16 11:41:56;;;;;;;0.10;0.10;;;6.80;99.90;;;;;;5003009;28;20471;-75
2023/02/16 11:44:42;;;;;;;0.10;0.10;;;6.90;99.90;;;;;;5024222;28;20030;-76
2023/02/16 11:47:28;;;;;;;0.10;0.10;;;7.00;99.90;;;;;;4994047;28;20488;-75
2023/02/16 11:50:20;;;;;;;0.15;0.15;;;7.00;99.90;;;;;;4995239;28;20402;-76
2023/02/16 11:52:51;;;;;;;0.10;0.10;;;7.00;99.90;;;;;;4975755;28;20429;-76
2023/02/16 11:55:19;;;;;;;0.20;0.20;;;7.00;99.90;;;;;;4975589;28;20026;-75
2023/02/16 11:57:44;;;;;;;0.15;0.15;;;6.90;99.90;;;;;;4992514;28;20022;-76
2023/02/16 12:00:17;;;;;;;0.10;0.10;;;6.90;99.90;;;;;;5010218;28;20044;-75
2023/02/16 12:03:12;;;;;;;0.10;0.10;;;6.90;99.90;;;;;;4990755;28;20022;-75
2023/02/16 12:06:10;;;;;;;0.20;0.20;;;6.90;99.90;;;;;;4980360;28;20042;-75
2023/02/16 12:09:16;;;;;;;0.10;0.10;;;6.90;99.90;;;;;;5021890;23;20041;-75
2023/02/16 12:12:16;;;;;;;0.10;0.10;;;6.90;99.90;;;;;;5014533;28;20096;-74
2023/02/16 12:15:22;;;;;;;0.10;0.10;;;6.80;99.90;;;;;;4992628;28;20449;-74
2023/02/16 12:18:13;;;;;;;0.13;0.13;;;6.90;99.90;;;;;;5014126;28;20026;-74
2023/02/16 12:21:20;;;;;;;0.10;0.10;;;6.90;99.90;;;;;;4993301;28;20018;-74
2023/02/16 12:24:04;;;;;;;0.10;0.10;;;6.90;99.90;;;;;;4994338;28;20081;-74
2023/02/16 12:26:43;;;;;;;0.10;0.10;;;6.90;99.90;;;;;;4972939;28;20053;-74
2023/02/16 12:29:23;;;;;;;0.10;0.10;;;6.90;99.90;;;;;;4994035;28;20023;-74
2023/02/16 12:32:09;;;;;;;0.10;0.10;;;7.00;99.90;;;;;;4994134;28;20027;-74
2023/02/16 12:34:52;;;;;;;0.10;0.10;;;7.00;99.90;;;;;;4993058;28;20026;-74
2023/02/16 12:37:37;;;;;;;0.00;0.00;;;7.00;99.90;;;;;;4993494;28;20033;-74
2023/02/16 12:40:27;;;;;;;0.10;0.10;;;7.00;99.90;;;;;;4992364;28;20027;-74
2023/02/16 12:43:20;;;;;;;0.10;0.10;;;7.10;99.90;;;;;;4972802;28;20116;-74
2023/02/16 12:45:47;;;;;;;0.10;0.10;;;7.10;99.90;;;;;;4993814;28;20034;-74
2023/02/16 12:48:57;;;;;;;0.10;0.10;;;7.10;99.90;;;;;;4993164;28;20039;-74
2023/02/16 12:51:29;;;;;;;0.10;0.10;;;7.10;99.90;;;;;;4977857;28;20034;-74
2023/02/16 12:54:13;;;;;;;0.10;0.10;;;7.10;99.90;;;;;;4992487;28;20030;-74
2023/02/16 12:56:43;;;;;;;0.10;0.10;;;7.00;99.90;;;;;;4993779;28;20030;-74
2023/02/16 12:59:29;;;;;;;0.20;0.20;;;7.10;99.90;;;;;;4991752;28;20030;-74
2023/02/16 13:01:58;;;;;;;0.10;0.10;;;7.20;99.90;;;;;;4994519;28;20541;-74
2023/02/16 13:04:42;;;;;;;0.10;0.10;;;7.20;99.90;;;;;;4994101;28;20031;-74
2023/02/16 13:07:29;;;;;;;0.10;0.10;;;7.10;99.90;;;;;;4994179;28;20026;-74
2023/02/16 13:10:05;;;;;;;0.10;0.10;;;7.10;99.90;;;;;;4993923;28;20034;-74
2023/02/16 13:12:39;;;;;;;0.10;0.10;;;7.10;99.90;;;;;;4992814;28;20030;-74
2023/02/16 13:15:13;;;;;;;0.17;0.17;;;7.10;99.90;;;;;;4994236;28;20394;-74
2023/02/16 13:17:43;;;;;;;0.10;0.10;;;7.10;99.90;;;;;;4993957;28;20022;-74
2023/02/16 13:20:19;;;;;;;0.10;0.10;;;7.10;99.90;;;;;;4993946;28;20419;-76
2023/02/16 13:23:11;;;;;;;0.20;0.20;;;7.20;99.90;;;;;;4994251;28;20049;-75
2023/02/16 13:26:03;;;;;;;0.10;0.10;;;7.10;99.90;;;;;;4993913;28;20022;-75
2023/02/16 13:28:46;;;;;;;0.10;0.10;;;7.10;99.90;;;;;;4992561;28;20030;-75
2023/02/16 13:31:42;;;;;;;0.20;0.20;;;7.00;99.90;;;;;;4993857;28;20044;-75
2023/02/16 13:34:41;;;;;;;0.10;0.10;;;7.00;99.90;;;;;;4993982;28;20018;-75
2023/02/16 13:37:17;;;;;;;0.10;0.10;;;7.00;99.90;;;;;;4993272;28;20030;-75
2023/02/16 13:40:28;;;;;;;0.10;0.10;;;7.00;99.90;;;;;;4993973;28;20033;-74
2023/02/16 13:43:30;;;;;;;0.10;0.10;;;7.00;99.90;;;;;;4994024;28;20109;-75
2023/02/16 13:45:58;;;;;;;0.10;0.10;;;7.10;99.90;;;;;;4992457;28;20029;-74
2023/02/16 13:48:38;;;;;;;0.10;0.10;;;7.00;99.90;;;;;;4993612;28;20022;-74
2023/02/16 13:51:10;;;;;;;0.20;0.20;;;7.00;99.90;;;;;;4976254;28;20026;-75
2023/02/16 13:53:40;;;;;;;0.10;0.10;;;7.00;99.90;;;;;;4993942;28;20038;-75
2023/02/16 13:56:27;;;;;;;0.10;0.10;;;6.90;99.90;;;;;;4993525;28;20488;-74
2023/02/16 13:58:53;;;;;;;0.10;0.10;;;6.90;99.90;;;;;;4992253;28;20513;-74
2023/02/16 14:01:30;;;;;;;0.10;0.10;;;7.00;99.90;;;;;;4993537;28;20023;-75